sensor_id;sensor_type;location;lat;lon;timestamp;P1;durP1;ratioP1;P2;durP2;ratioP2
66175;SDS011;52977;44.816;20.538;2023-02-22T00:01:40;12.38;;;5.88;;
66175;SDS011;52977;44.816;20.538;2023-02-22T00:04:15;12.73;;;5.78;;
66175;SDS011;52977;44.816;20.538;2023-02-22T00:06:46;18.85;;;5.47;;
66175;SDS011;52977;44.816;20.538;2023-02-22T00:09:13;11.80;;;5.50;;
66175;SDS011;52977;44.816;20.538;2023-02-22T00:11:45;12.23;;;5.10;;
66175;SDS011;52977;44.816;20.538;2023-02-22T00:14:12;14.60;;;5.82;;
66175;SDS011;52977;44.816;20.538;2023-02-22T00:16:39;13.32;;;5.97;;
66175;SDS011;52977;44.816;20.538;2023-02-22T00:19:05;13.30;;;5.70;;
66175;SDS011;52977;44.816;20.538;2023-02-22T00:21:31;14.15;;;5.90;;
66175;SDS011;52977;44.816;20.538;2023-02-22T00:23:58;13.45;;;6.50;;
66175;SDS011;52977;44.816;20.538;2023-02-22T00:26:24;18.95;;;7.35;;
66175;SDS011;52977;44.816;20.538;2023-02-22T00:28:51;24.63;;;9.18;;
66175;SDS011;52977;44.816;20.538;2023-02-22T00:31:18;21.70;;;9.05;;
66175;SDS011;52977;44.816;20.538;2023-02-22T00:33:48;21.58;;;8.50;;
66175;SDS011;52977;44.816;20.538;2023-02-22T00:36:16;17.17;;;7.80;;
66175;SDS011;52977;44.816;20.538;2023-02-22T00:38:42;14.30;;;6.80;;
66175;SDS011;52977;44.816;20.538;2023-02-22T00:41:08;14.45;;;6.68;;
66175;SDS011;52977;44.816;20.538;2023-02-22T00:43:36;13.80;;;6.22;;
66175;SDS011;52977;44.816;20.538;2023-02-22T00:46:02;12.13;;;5.50;;
66175;SDS011;52977;44.816;20.538;2023-02-22T00:48:29;13.13;;;5.50;;
66175;SDS011;52977;44.816;20.538;2023-02-22T00:50:55;11.57;;;5.25;;
66175;SDS011;52977;44.816;20.538;2023-02-22T00:53:22;9.98;;;5.13;;
66175;SDS011;52977;44.816;20.538;2023-02-22T00:55:50;10.57;;;5.10;;
66175;SDS011;52977;44.816;20.538;2023-02-22T00:58:17;10.38;;;5.18;;
66175;SDS011;52977;44.816;20.538;2023-02-22T01:00:45;13.90;;;5.68;;
66175;SDS011;52977;44.816;20.538;2023-02-22T01:03:13;13.38;;;5.93;;
66175;SDS011;52977;44.816;20.538;2023-02-22T01:05:42;12.05;;;5.55;;
66175;SDS011;52977;44.816;20.538;2023-02-22T01:08:09;13.38;;;5.22;;
66175;SDS011;52977;44.816;20.538;2023-02-22T01:10:37;9.73;;;4.05;;
66175;SDS011;52977;44.816;20.538;2023-02-22T01:13:04;13.75;;;4.38;;
66175;SDS011;52977;44.816;20.538;2023-02-22T01:15:34;10.55;;;3.75;;
66175;SDS011;52977;44.816;20.538;2023-02-22T01:18:02;11.02;;;3.70;;
66175;SDS011;52977;44.816;20.538;2023-02-22T01:20:30;7.03;;;3.28;;
66175;SDS011;52977;44.816;20.538;2023-02-22T01:22:59;11.35;;;3.40;;
66175;SDS011;52977;44.816;20.538;2023-02-22T01:25:29;7.78;;;3.35;;
66175;SDS011;52977;44.816;20.538;2023-02-22T01:27:56;6.78;;;2.97;;
66175;SDS011;52977;44.816;20.538;2023-02-22T01:30:26;6.57;;;3.08;;
66175;SDS011;52977;44.816;20.538;2023-02-22T01:32:55;5.97;;;2.72;;
66175;SDS011;52977;44.816;20.538;2023-02-22T01:35:23;8.05;;;2.80;;
66175;SDS011;52977;44.816;20.538;2023-02-22T01:37:56;6.03;;;3.08;;
66175;SDS011;52977;44.816;20.538;2023-02-22T01:40:24;5.72;;;2.80;;
66175;SDS011;52977;44.816;20.538;2023-02-22T01:42:57;5.55;;;2.28;;
66175;SDS011;52977;44.816;20.538;2023-02-22T01:48:08;6.72;;;2.00;;
66175;SDS011;52977;44.816;20.538;2023-02-22T01:53:43;5.63;;;2.20;;
66175;SDS011;52977;44.816;20.538;2023-02-22T01:56:17;5.57;;;2.20;;
66175;SDS011;52977;44.816;20.538;2023-02-22T01:58:46;5.05;;;1.70;;
66175;SDS011;52977;44.816;20.538;2023-02-22T02:03:43;7.13;;;2.30;;
66175;SDS011;52977;44.816;20.538;2023-02-22T02:06:11;3.95;;;1.67;;
66175;SDS011;52977;44.816;20.538;2023-02-22T02:08:43;5.18;;;1.58;;
66175;SDS011;52977;44.816;20.538;2023-02-22T02:11:18;5.95;;;2.17;;
66175;SDS011;52977;44.816;20.538;2023-02-22T02:13:48;4.13;;;1.65;;
66175;SDS011;52977;44.816;20.538;2023-02-22T02:16:17;4.25;;;1.70;;
66175;SDS011;52977;44.816;20.538;2023-02-22T02:18:43;4.45;;;1.65;;
66175;SDS011;52977;44.816;20.538;2023-02-22T02:27:01;5.57;;;1.75;;
66175;SDS011;52977;44.816;20.538;2023-02-22T02:37:54;6.03;;;2.10;;
66175;SDS011;52977;44.816;20.538;2023-02-22T02:45:37;9.32;;;3.72;;
66175;SDS011;52977;44.816;20.538;2023-02-22T02:48:26;12.20;;;4.17;;
66175;SDS011;52977;44.816;20.538;2023-02-22T02:50:55;10.35;;;4.07;;
66175;SDS011;52977;44.816;20.538;2023-02-22T02:53:31;9.68;;;3.83;;
66175;SDS011;52977;44.816;20.538;2023-02-22T02:56:01;9.68;;;4.57;;
66175;SDS011;52977;44.816;20.538;2023-02-22T02:58:28;11.02;;;5.13;;
66175;SDS011;52977;44.816;20.538;2023-02-22T03:00:55;10.77;;;5.03;;
66175;SDS011;52977;44.816;20.538;2023-02-22T03:06:15;12.63;;;5.28;;
66175;SDS011;52977;44.816;20.538;2023-02-22T03:11:35;11.40;;;5.20;;
66175;SDS011;52977;44.816;20.538;2023-02-22T03:14:28;12.73;;;5.90;;
66175;SDS011;52977;44.816;20.538;2023-02-22T03:17:18;13.07;;;5.43;;
66175;SDS011;52977;44.816;20.538;2023-02-22T03:23:15;15.35;;;5.45;;
66175;SDS011;52977;44.816;20.538;2023-02-22T03:26:00;11.18;;;4.88;;
66175;SDS011;52977;44.816;20.538;2023-02-22T03:28:34;11.23;;;5.43;;
66175;SDS011;52977;44.816;20.538;2023-02-22T03:31:06;11.32;;;4.65;;
66175;SDS011;52977;44.816;20.538;2023-02-22T03:33:44;11.75;;;5.28;;
66175;SDS011;52977;44.816;20.538;2023-02-22T03:36:22;12.65;;;5.28;;
66175;SDS011;52977;44.816;20.538;2023-02-22T03:38:53;12.38;;;6.88;;
66175;SDS011;52977;44.816;20.538;2023-02-22T03:41:22;13.50;;;6.80;;
66175;SDS011;52977;44.816;20.538;2023-02-22T03:43:57;15.40;;;7.40;;
66175;SDS011;52977;44.816;20.538;2023-02-22T03:46:28;16.92;;;7.32;;
66175;SDS011;52977;44.816;20.538;2023-02-22T03:51:38;21.75;;;9.70;;
66175;SDS011;52977;44.816;20.538;2023-02-22T03:54:05;19.52;;;9.30;;
66175;SDS011;52977;44.816;20.538;2023-02-22T03:56:39;21.23;;;10.40;;
66175;SDS011;52977;44.816;20.538;2023-02-22T03:59:12;24.52;;;11.75;;
66175;SDS011;52977;44.816;20.538;2023-02-22T04:01:39;22.20;;;11.30;;
66175;SDS011;52977;44.816;20.538;2023-02-22T04:04:05;25.85;;;12.13;;
66175;SDS011;52977;44.816;20.538;2023-02-22T04:06:34;28.70;;;13.82;;
66175;SDS011;52977;44.816;20.538;2023-02-22T04:09:00;26.98;;;12.98;;
66175;SDS011;52977;44.816;20.538;2023-02-22T04:11:26;26.33;;;13.43;;
66175;SDS011;52977;44.816;20.538;2023-02-22T04:13:53;30.63;;;13.50;;
66175;SDS011;52977;44.816;20.538;2023-02-22T04:16:20;26.35;;;13.55;;
66175;SDS011;52977;44.816;20.538;2023-02-22T04:18:46;30.90;;;13.63;;
66175;SDS011;52977;44.816;20.538;2023-02-22T04:21:16;30.60;;;13.68;;
66175;SDS011;52977;44.816;20.538;2023-02-22T04:23:45;29.40;;;13.73;;
66175;SDS011;52977;44.816;20.538;2023-02-22T04:26:12;29.65;;;13.82;;
66175;SDS011;52977;44.816;20.538;2023-02-22T04:28:38;32.30;;;14.55;;
66175;SDS011;52977;44.816;20.538;2023-02-22T04:31:11;26.95;;;13.82;;
66175;SDS011;52977;44.816;20.538;2023-02-22T04:33:39;35.10;;;14.23;;
66175;SDS011;52977;44.816;20.538;2023-02-22T04:36:06;30.77;;;13.43;;
66175;SDS011;52977;44.816;20.538;2023-02-22T04:38:34;28.67;;;13.63;;
66175;SDS011;52977;44.816;20.538;2023-02-22T04:41:01;28.25;;;13.00;;
66175;SDS011;52977;44.816;20.538;2023-02-22T04:43:27;31.30;;;14.30;;
66175;SDS011;52977;44.816;20.538;2023-02-22T04:46:02;27.60;;;13.32;;
66175;SDS011;52977;44.816;20.538;2023-02-22T04:48:29;33.22;;;13.73;;
66175;SDS011;52977;44.816;20.538;2023-02-22T04:50:55;27.55;;;13.23;;
66175;SDS011;52977;44.816;20.538;2023-02-22T04:53:22;28.00;;;12.80;;
66175;SDS011;52977;44.816;20.538;2023-02-22T04:55:48;29.38;;;11.88;;
66175;SDS011;52977;44.816;20.538;2023-02-22T04:58:15;25.63;;;11.45;;
66175;SDS011;52977;44.816;20.538;2023-02-22T05:00:41;25.63;;;11.68;;
66175;SDS011;52977;44.816;20.538;2023-02-22T05:03:08;26.60;;;11.95;;
66175;SDS011;52977;44.816;20.538;2023-02-22T05:05:34;24.77;;;12.40;;
66175;SDS011;52977;44.816;20.538;2023-02-22T05:07:59;30.30;;;11.50;;
66175;SDS011;52977;44.816;20.538;2023-02-22T05:10:26;25.58;;;11.85;;
66175;SDS011;52977;44.816;20.538;2023-02-22T05:12:52;26.08;;;11.25;;
66175;SDS011;52977;44.816;20.538;2023-02-22T05:15:19;21.45;;;10.73;;
66175;SDS011;52977;44.816;20.538;2023-02-22T05:17:47;23.52;;;11.27;;
66175;SDS011;52977;44.816;20.538;2023-02-22T05:20:20;23.60;;;10.13;;
66175;SDS011;52977;44.816;20.538;2023-02-22T05:22:47;24.17;;;10.98;;
66175;SDS011;52977;44.816;20.538;2023-02-22T05:25:13;27.27;;;11.27;;
66175;SDS011;52977;44.816;20.538;2023-02-22T05:27:40;21.98;;;11.15;;
66175;SDS011;52977;44.816;20.538;2023-02-22T05:30:06;22.20;;;11.20;;
66175;SDS011;52977;44.816;20.538;2023-02-22T05:32:34;24.40;;;11.27;;
66175;SDS011;52977;44.816;20.538;2023-02-22T05:35:00;22.17;;;11.05;;
66175;SDS011;52977;44.816;20.538;2023-02-22T05:37:26;23.25;;;10.43;;
66175;SDS011;52977;44.816;20.538;2023-02-22T05:39:52;25.40;;;11.60;;
66175;SDS011;52977;44.816;20.538;2023-02-22T05:42:20;24.45;;;11.10;;
66175;SDS011;52977;44.816;20.538;2023-02-22T05:44:48;24.05;;;11.75;;
66175;SDS011;52977;44.816;20.538;2023-02-22T05:47:14;26.40;;;11.90;;
66175;SDS011;52977;44.816;20.538;2023-02-22T05:49:40;21.85;;;10.80;;
66175;SDS011;52977;44.816;20.538;2023-02-22T05:52:06;24.05;;;11.27;;
66175;SDS011;52977;44.816;20.538;2023-02-22T05:54:32;24.33;;;11.10;;
66175;SDS011;52977;44.816;20.538;2023-02-22T05:56:59;22.80;;;11.68;;
66175;SDS011;52977;44.816;20.538;2023-02-22T05:59:25;23.15;;;11.60;;
66175;SDS011;52977;44.816;20.538;2023-02-22T06:01:52;23.02;;;11.85;;
66175;SDS011;52977;44.816;20.538;2023-02-22T06:04:18;22.33;;;11.45;;
66175;SDS011;52977;44.816;20.538;2023-02-22T06:06:44;26.83;;;12.00;;
66175;SDS011;52977;44.816;20.538;2023-02-22T06:09:11;24.70;;;11.45;;
66175;SDS011;52977;44.816;20.538;2023-02-22T06:11:37;26.85;;;11.32;;
66175;SDS011;52977;44.816;20.538;2023-02-22T06:14:04;24.92;;;11.73;;
66175;SDS011;52977;44.816;20.538;2023-02-22T06:16:30;25.83;;;11.95;;
66175;SDS011;52977;44.816;20.538;2023-02-22T06:18:56;24.05;;;12.00;;
66175;SDS011;52977;44.816;20.538;2023-02-22T06:21:24;24.38;;;11.45;;
66175;SDS011;52977;44.816;20.538;2023-02-22T06:23:51;23.58;;;12.15;;
66175;SDS011;52977;44.816;20.538;2023-02-22T06:26:18;36.10;;;16.95;;
66175;SDS011;52977;44.816;20.538;2023-02-22T06:28:45;31.30;;;14.32;;
66175;SDS011;52977;44.816;20.538;2023-02-22T06:31:11;29.15;;;13.80;;
66175;SDS011;52977;44.816;20.538;2023-02-22T06:33:38;25.67;;;13.00;;
66175;SDS011;52977;44.816;20.538;2023-02-22T06:36:04;27.38;;;13.20;;
66175;SDS011;52977;44.816;20.538;2023-02-22T06:38:31;26.63;;;12.43;;
66175;SDS011;52977;44.816;20.538;2023-02-22T06:40:57;27.75;;;13.05;;
66175;SDS011;52977;44.816;20.538;2023-02-22T06:43:24;27.52;;;12.88;;
66175;SDS011;52977;44.816;20.538;2023-02-22T06:45:51;24.95;;;12.48;;
66175;SDS011;52977;44.816;20.538;2023-02-22T06:48:22;28.25;;;13.00;;
66175;SDS011;52977;44.816;20.538;2023-02-22T06:50:48;30.55;;;14.20;;
66175;SDS011;52977;44.816;20.538;2023-02-22T06:53:14;46.45;;;21.60;;
66175;SDS011;52977;44.816;20.538;2023-02-22T06:55:41;46.25;;;21.85;;
66175;SDS011;52977;44.816;20.538;2023-02-22T06:58:06;34.80;;;17.20;;
66175;SDS011;52977;44.816;20.538;2023-02-22T07:00:32;33.55;;;14.93;;
66175;SDS011;52977;44.816;20.538;2023-02-22T07:02:59;25.45;;;13.25;;
66175;SDS011;52977;44.816;20.538;2023-02-22T07:05:26;30.58;;;12.60;;
66175;SDS011;52977;44.816;20.538;2023-02-22T07:07:54;26.08;;;13.25;;
66175;SDS011;52977;44.816;20.538;2023-02-22T07:10:27;26.95;;;13.38;;
66175;SDS011;52977;44.816;20.538;2023-02-22T07:12:55;28.88;;;13.85;;
66175;SDS011;52977;44.816;20.538;2023-02-22T07:15:22;28.92;;;13.23;;
66175;SDS011;52977;44.816;20.538;2023-02-22T07:17:50;30.88;;;13.27;;
66175;SDS011;52977;44.816;20.538;2023-02-22T07:20:16;28.35;;;13.65;;
66175;SDS011;52977;44.816;20.538;2023-02-22T07:22:45;34.03;;;15.77;;
66175;SDS011;52977;44.816;20.538;2023-02-22T07:25:12;37.85;;;16.15;;
66175;SDS011;52977;44.816;20.538;2023-02-22T07:27:39;35.55;;;17.20;;
66175;SDS011;52977;44.816;20.538;2023-02-22T07:30:07;38.58;;;18.33;;
66175;SDS011;52977;44.816;20.538;2023-02-22T07:32:41;37.67;;;18.13;;
66175;SDS011;52977;44.816;20.538;2023-02-22T07:35:18;38.85;;;19.33;;
66175;SDS011;52977;44.816;20.538;2023-02-22T07:37:57;36.53;;;17.85;;
66175;SDS011;52977;44.816;20.538;2023-02-22T07:40:25;35.85;;;17.60;;
66175;SDS011;52977;44.816;20.538;2023-02-22T07:42:58;32.40;;;16.98;;
66175;SDS011;52977;44.816;20.538;2023-02-22T07:45:40;32.25;;;16.30;;
66175;SDS011;52977;44.816;20.538;2023-02-22T07:48:06;33.33;;;16.70;;
66175;SDS011;52977;44.816;20.538;2023-02-22T07:50:33;33.38;;;17.23;;
66175;SDS011;52977;44.816;20.538;2023-02-22T07:53:04;32.70;;;16.33;;
66175;SDS011;52977;44.816;20.538;2023-02-22T07:55:32;38.88;;;19.08;;
66175;SDS011;52977;44.816;20.538;2023-02-22T07:58:00;45.55;;;19.92;;
66175;SDS011;52977;44.816;20.538;2023-02-22T08:00:28;38.63;;;20.20;;
66175;SDS011;52977;44.816;20.538;2023-02-22T08:02:57;39.17;;;18.98;;
66175;SDS011;52977;44.816;20.538;2023-02-22T08:05:25;38.28;;;18.65;;
66175;SDS011;52977;44.816;20.538;2023-02-22T08:07:52;38.05;;;20.00;;
66175;SDS011;52977;44.816;20.538;2023-02-22T08:10:20;40.40;;;20.52;;
66175;SDS011;52977;44.816;20.538;2023-02-22T08:12:48;46.47;;;20.13;;
66175;SDS011;52977;44.816;20.538;2023-02-22T08:15:19;38.72;;;19.52;;
66175;SDS011;52977;44.816;20.538;2023-02-22T08:17:53;43.30;;;20.30;;
66175;SDS011;52977;44.816;20.538;2023-02-22T08:20:20;40.92;;;21.50;;
66175;SDS011;52977;44.816;20.538;2023-02-22T08:22:48;43.10;;;21.05;;
66175;SDS011;52977;44.816;20.538;2023-02-22T08:25:15;38.00;;;20.48;;
66175;SDS011;52977;44.816;20.538;2023-02-22T08:27:44;39.92;;;20.95;;
66175;SDS011;52977;44.816;20.538;2023-02-22T08:30:12;38.00;;;19.60;;
66175;SDS011;52977;44.816;20.538;2023-02-22T08:32:41;44.58;;;21.35;;
66175;SDS011;52977;44.816;20.538;2023-02-22T08:35:08;40.00;;;21.50;;
66175;SDS011;52977;44.816;20.538;2023-02-22T08:37:34;44.70;;;22.38;;
66175;SDS011;52977;44.816;20.538;2023-02-22T08:40:01;43.28;;;20.88;;
66175;SDS011;52977;44.816;20.538;2023-02-22T08:42:27;49.03;;;23.08;;
66175;SDS011;52977;44.816;20.538;2023-02-22T08:44:53;37.90;;;19.23;;
66175;SDS011;52977;44.816;20.538;2023-02-22T08:47:19;39.47;;;18.90;;
66175;SDS011;52977;44.816;20.538;2023-02-22T08:49:45;39.08;;;20.42;;
66175;SDS011;52977;44.816;20.538;2023-02-22T08:52:12;48.70;;;20.83;;
66175;SDS011;52977;44.816;20.538;2023-02-22T08:54:38;42.25;;;21.15;;
66175;SDS011;52977;44.816;20.538;2023-02-22T08:57:04;38.15;;;19.25;;
66175;SDS011;52977;44.816;20.538;2023-02-22T08:59:30;41.38;;;20.13;;
66175;SDS011;52977;44.816;20.538;2023-02-22T09:01:56;41.83;;;19.88;;
66175;SDS011;52977;44.816;20.538;2023-02-22T09:04:23;40.70;;;20.25;;
66175;SDS011;52977;44.816;20.538;2023-02-22T09:06:49;42.17;;;20.42;;
66175;SDS011;52977;44.816;20.538;2023-02-22T09:09:17;38.95;;;19.63;;
66175;SDS011;52977;44.816;20.538;2023-02-22T09:11:46;40.75;;;19.85;;
66175;SDS011;52977;44.816;20.538;2023-02-22T09:14:13;36.25;;;18.88;;
66175;SDS011;52977;44.816;20.538;2023-02-22T09:16:42;39.28;;;18.88;;
66175;SDS011;52977;44.816;20.538;2023-02-22T09:19:12;34.90;;;17.63;;
66175;SDS011;52977;44.816;20.538;2023-02-22T09:21:39;37.33;;;16.42;;
66175;SDS011;52977;44.816;20.538;2023-02-22T09:24:06;32.58;;;14.65;;
66175;SDS011;52977;44.816;20.538;2023-02-22T09:26:36;32.60;;;14.10;;
66175;SDS011;52977;44.816;20.538;2023-02-22T09:29:07;26.50;;;13.45;;
66175;SDS011;52977;44.816;20.538;2023-02-22T09:31:38;29.42;;;12.73;;
66175;SDS011;52977;44.816;20.538;2023-02-22T09:34:06;26.98;;;13.70;;
66175;SDS011;52977;44.816;20.538;2023-02-22T09:36:39;31.90;;;13.80;;
66175;SDS011;52977;44.816;20.538;2023-02-22T09:39:06;27.88;;;13.82;;
66175;SDS011;52977;44.816;20.538;2023-02-22T09:45:11;27.15;;;12.73;;
66175;SDS011;52977;44.816;20.538;2023-02-22T09:47:56;22.63;;;10.98;;
66175;SDS011;52977;44.816;20.538;2023-02-22T09:50:28;23.52;;;11.10;;
66175;SDS011;52977;44.816;20.538;2023-02-22T09:53:09;30.27;;;11.63;;
66175;SDS011;52977;44.816;20.538;2023-02-22T09:55:43;19.45;;;9.73;;
66175;SDS011;52977;44.816;20.538;2023-02-22T10:00:42;18.65;;;8.82;;
66175;SDS011;52977;44.816;20.538;2023-02-22T10:06:12;18.00;;;9.70;;
66175;SDS011;52977;44.816;20.538;2023-02-22T10:08:41;21.98;;;11.73;;
66175;SDS011;52977;44.816;20.538;2023-02-22T10:19:39;13.90;;;6.97;;
66175;SDS011;52977;44.816;20.538;2023-02-22T10:27:41;17.17;;;8.10;;
66175;SDS011;52977;44.816;20.538;2023-02-22T10:30:21;18.33;;;8.40;;
66175;SDS011;52977;44.816;20.538;2023-02-22T10:32:56;21.25;;;9.18;;
66175;SDS011;52977;44.816;20.538;2023-02-22T10:35:29;18.83;;;9.55;;
66175;SDS011;52977;44.816;20.538;2023-02-22T10:40:31;17.00;;;8.15;;
66175;SDS011;52977;44.816;20.538;2023-02-22T10:43:02;21.02;;;9.80;;
66175;SDS011;52977;44.816;20.538;2023-02-22T10:45:30;19.55;;;9.70;;
66175;SDS011;52977;44.816;20.538;2023-02-22T10:48:00;21.33;;;9.25;;
66175;SDS011;52977;44.816;20.538;2023-02-22T10:50:33;20.55;;;10.00;;
66175;SDS011;52977;44.816;20.538;2023-02-22T10:53:01;24.35;;;9.73;;
66175;SDS011;52977;44.816;20.538;2023-02-22T10:55:28;18.67;;;9.23;;
66175;SDS011;52977;44.816;20.538;2023-02-22T10:57:58;19.23;;;10.02;;
66175;SDS011;52977;44.816;20.538;2023-02-22T11:02:58;21.50;;;10.82;;
66175;SDS011;52977;44.816;20.538;2023-02-22T11:05:47;17.77;;;9.82;;
66175;SDS011;52977;44.816;20.538;2023-02-22T11:10:47;23.17;;;10.75;;
66175;SDS011;52977;44.816;20.538;2023-02-22T11:13:16;22.33;;;9.90;;
66175;SDS011;52977;44.816;20.538;2023-02-22T11:15:54;19.35;;;10.23;;
66175;SDS011;52977;44.816;20.538;2023-02-22T11:18:29;24.42;;;11.45;;
66175;SDS011;52977;44.816;20.538;2023-02-22T11:21:05;23.45;;;11.20;;
66175;SDS011;52977;44.816;20.538;2023-02-22T11:23:35;18.30;;;8.43;;
66175;SDS011;52977;44.816;20.538;2023-02-22T11:26:12;19.25;;;9.35;;
66175;SDS011;52977;44.816;20.538;2023-02-22T11:28:42;18.48;;;9.32;;
66175;SDS011;52977;44.816;20.538;2023-02-22T11:31:17;20.90;;;10.40;;
66175;SDS011;52977;44.816;20.538;2023-02-22T11:39:20;17.90;;;8.15;;
66175;SDS011;52977;44.816;20.538;2023-02-22T11:41:52;23.00;;;10.40;;
66175;SDS011;52977;44.816;20.538;2023-02-22T11:46:57;18.08;;;8.52;;
66175;SDS011;52977;44.816;20.538;2023-02-22T11:49:32;22.20;;;10.27;;
66175;SDS011;52977;44.816;20.538;2023-02-22T11:52:44;22.10;;;11.00;;
66175;SDS011;52977;44.816;20.538;2023-02-22T12:00:22;20.25;;;10.35;;
66175;SDS011;52977;44.816;20.538;2023-02-22T12:08:57;19.30;;;9.82;;
66175;SDS011;52977;44.816;20.538;2023-02-22T12:17:20;18.08;;;8.27;;
66175;SDS011;52977;44.816;20.538;2023-02-22T12:19:49;18.23;;;8.02;;
66175;SDS011;52977;44.816;20.538;2023-02-22T12:22:21;18.00;;;8.30;;
66175;SDS011;52977;44.816;20.538;2023-02-22T12:24:54;16.70;;;8.27;;
66175;SDS011;52977;44.816;20.538;2023-02-22T12:27:35;19.38;;;8.80;;
66175;SDS011;52977;44.816;20.538;2023-02-22T12:30:14;14.63;;;7.57;;
66175;SDS011;52977;44.816;20.538;2023-02-22T12:32:49;16.70;;;8.25;;
66175;SDS011;52977;44.816;20.538;2023-02-22T12:35:28;17.13;;;8.07;;
66175;SDS011;52977;44.816;20.538;2023-02-22T12:38:23;18.85;;;8.98;;
66175;SDS011;52977;44.816;20.538;2023-02-22T12:40:52;17.17;;;8.32;;
66175;SDS011;52977;44.816;20.538;2023-02-22T12:45:49;17.80;;;8.65;;
66175;SDS011;52977;44.816;20.538;2023-02-22T12:57:08;17.48;;;9.23;;
66175;SDS011;52977;44.816;20.538;2023-02-22T12:59:48;19.05;;;9.85;;
66175;SDS011;52977;44.816;20.538;2023-02-22T13:04:46;20.92;;;9.35;;
66175;SDS011;52977;44.816;20.538;2023-02-22T13:10:02;22.58;;;10.98;;
66175;SDS011;52977;44.816;20.538;2023-02-22T13:12:40;19.20;;;9.60;;
66175;SDS011;52977;44.816;20.538;2023-02-22T13:18:49;17.75;;;9.70;;
66175;SDS011;52977;44.816;20.538;2023-02-22T13:29:09;18.70;;;9.27;;
66175;SDS011;52977;44.816;20.538;2023-02-22T13:34:29;18.02;;;9.52;;
66175;SDS011;52977;44.816;20.538;2023-02-22T13:43:00;20.88;;;9.48;;
66175;SDS011;52977;44.816;20.538;2023-02-22T13:53:18;20.08;;;9.02;;
66175;SDS011;52977;44.816;20.538;2023-02-22T13:55:53;19.38;;;9.93;;
66175;SDS011;52977;44.816;20.538;2023-02-22T13:58:22;19.52;;;9.75;;
66175;SDS011;52977;44.816;20.538;2023-02-22T14:00:51;19.70;;;9.35;;
66175;SDS011;52977;44.816;20.538;2023-02-22T14:05:51;16.27;;;8.32;;
66175;SDS011;52977;44.816;20.538;2023-02-22T14:10:58;18.83;;;8.75;;
66175;SDS011;52977;44.816;20.538;2023-02-22T14:13:25;18.83;;;9.68;;
66175;SDS011;52977;44.816;20.538;2023-02-22T14:18:23;16.40;;;8.68;;
66175;SDS011;52977;44.816;20.538;2023-02-22T14:21:12;18.75;;;9.55;;
66175;SDS011;52977;44.816;20.538;2023-02-22T14:23:39;18.83;;;9.52;;
66175;SDS011;52977;44.816;20.538;2023-02-22T14:26:15;21.27;;;9.75;;
66175;SDS011;52977;44.816;20.538;2023-02-22T14:34:18;22.73;;;9.30;;
66175;SDS011;52977;44.816;20.538;2023-02-22T14:36:53;16.52;;;8.52;;
66175;SDS011;52977;44.816;20.538;2023-02-22T14:39:31;15.45;;;7.93;;
66175;SDS011;52977;44.816;20.538;2023-02-22T14:42:04;18.73;;;8.93;;
66175;SDS011;52977;44.816;20.538;2023-02-22T14:44:43;18.42;;;8.05;;
66175;SDS011;52977;44.816;20.538;2023-02-22T14:47:31;13.05;;;7.20;;
66175;SDS011;52977;44.816;20.538;2023-02-22T14:50:05;15.82;;;6.97;;
66175;SDS011;52977;44.816;20.538;2023-02-22T14:52:37;13.73;;;6.38;;
66175;SDS011;52977;44.816;20.538;2023-02-22T14:55:12;20.08;;;7.53;;
66175;SDS011;52977;44.816;20.538;2023-02-22T14:57:44;14.52;;;6.72;;
66175;SDS011;52977;44.816;20.538;2023-02-22T15:00:24;11.65;;;5.90;;
66175;SDS011;52977;44.816;20.538;2023-02-22T15:02:56;16.13;;;6.78;;
66175;SDS011;52977;44.816;20.538;2023-02-22T15:05:28;14.48;;;5.40;;
66175;SDS011;52977;44.816;20.538;2023-02-22T15:08:04;20.10;;;6.43;;
66175;SDS011;52977;44.816;20.538;2023-02-22T15:13:15;13.65;;;5.95;;
66175;SDS011;52977;44.816;20.538;2023-02-22T15:18:25;10.63;;;5.60;;
66175;SDS011;52977;44.816;20.538;2023-02-22T15:20:56;12.30;;;5.38;;
66175;SDS011;52977;44.816;20.538;2023-02-22T15:23:28;13.73;;;4.93;;
66175;SDS011;52977;44.816;20.538;2023-02-22T15:26:05;11.95;;;5.57;;
66175;SDS011;52977;44.816;20.538;2023-02-22T15:28:32;10.98;;;5.55;;
66175;SDS011;52977;44.816;20.538;2023-02-22T15:31:21;13.60;;;5.45;;
66175;SDS011;52977;44.816;20.538;2023-02-22T15:33:51;12.05;;;6.07;;
66175;SDS011;52977;44.816;20.538;2023-02-22T15:36:23;17.58;;;7.80;;
66175;SDS011;52977;44.816;20.538;2023-02-22T15:38:52;11.27;;;5.32;;
66175;SDS011;52977;44.816;20.538;2023-02-22T15:41:23;12.07;;;5.60;;
66175;SDS011;52977;44.816;20.538;2023-02-22T15:44:07;11.20;;;5.43;;
66175;SDS011;52977;44.816;20.538;2023-02-22T15:46:39;12.45;;;5.75;;
66175;SDS011;52977;44.816;20.538;2023-02-22T15:51:35;17.77;;;6.50;;
66175;SDS011;52977;44.816;20.538;2023-02-22T15:54:05;11.07;;;5.88;;
66175;SDS011;52977;44.816;20.538;2023-02-22T15:56:52;18.52;;;7.65;;
66175;SDS011;52977;44.816;20.538;2023-02-22T15:59:38;36.83;;;13.45;;
66175;SDS011;52977;44.816;20.538;2023-02-22T16:02:14;24.25;;;9.93;;
66175;SDS011;52977;44.816;20.538;2023-02-22T16:04:47;21.40;;;9.93;;
66175;SDS011;52977;44.816;20.538;2023-02-22T16:07:13;20.25;;;9.43;;
66175;SDS011;52977;44.816;20.538;2023-02-22T16:09:45;19.17;;;7.43;;
66175;SDS011;52977;44.816;20.538;2023-02-22T16:14:45;15.45;;;7.22;;
66175;SDS011;52977;44.816;20.538;2023-02-22T16:19:50;11.70;;;6.10;;
66175;SDS011;52977;44.816;20.538;2023-02-22T16:22:24;10.48;;;5.50;;
66175;SDS011;52977;44.816;20.538;2023-02-22T16:24:53;10.93;;;4.72;;
66175;SDS011;52977;44.816;20.538;2023-02-22T16:27:51;13.35;;;5.32;;
66175;SDS011;52977;44.816;20.538;2023-02-22T16:32:48;9.75;;;4.95;;
66175;SDS011;52977;44.816;20.538;2023-02-22T16:35:15;10.57;;;4.80;;
66175;SDS011;52977;44.816;20.538;2023-02-22T16:40:21;11.13;;;4.88;;
66175;SDS011;52977;44.816;20.538;2023-02-22T16:42:50;11.00;;;5.13;;
66175;SDS011;52977;44.816;20.538;2023-02-22T16:45:18;9.80;;;5.45;;
66175;SDS011;52977;44.816;20.538;2023-02-22T16:47:45;12.85;;;5.50;;
66175;SDS011;52977;44.816;20.538;2023-02-22T16:50:12;15.55;;;6.55;;
66175;SDS011;52977;44.816;20.538;2023-02-22T16:52:39;11.55;;;6.40;;
66175;SDS011;52977;44.816;20.538;2023-02-22T16:55:09;13.85;;;6.85;;
66175;SDS011;52977;44.816;20.538;2023-02-22T16:57:39;14.63;;;7.28;;
66175;SDS011;52977;44.816;20.538;2023-02-22T17:00:10;12.70;;;7.10;;
66175;SDS011;52977;44.816;20.538;2023-02-22T17:02:42;15.18;;;6.95;;
66175;SDS011;52977;44.816;20.538;2023-02-22T17:05:13;14.02;;;6.55;;
66175;SDS011;52977;44.816;20.538;2023-02-22T17:10:13;14.77;;;7.28;;
66175;SDS011;52977;44.816;20.538;2023-02-22T17:12:43;14.90;;;6.88;;
66175;SDS011;52977;44.816;20.538;2023-02-22T17:15:15;14.68;;;7.03;;
66175;SDS011;52977;44.816;20.538;2023-02-22T17:17:50;12.63;;;6.60;;
66175;SDS011;52977;44.816;20.538;2023-02-22T17:20:19;13.82;;;7.13;;
66175;SDS011;52977;44.816;20.538;2023-02-22T17:22:55;13.65;;;6.47;;
66175;SDS011;52977;44.816;20.538;2023-02-22T17:25:24;11.10;;;5.95;;
66175;SDS011;52977;44.816;20.538;2023-02-22T17:28:08;13.15;;;6.25;;